createdAt,value
2023-05-05T00:04:08.294Z,2.70
2023-05-05T00:09:10.925Z,2.77
2023-05-05T00:14:14.162Z,2.40
2023-05-05T00:19:16.714Z,3.00
2023-05-05T00:24:20.988Z,3.00
2023-05-05T00:29:23.504Z,3.30
2023-05-05T00:34:26.171Z,3.70
2023-05-05T00:39:28.946Z,5.83
2023-05-05T00:44:38.566Z,6.07
2023-05-05T00:49:41.597Z,7.70
2023-05-05T00:54:44.398Z,8.03
2023-05-05T00:59:47.126Z,6.13
2023-05-05T01:04:54.491Z,5.37
2023-05-05T01:10:19.675Z,4.13
2023-05-05T01:15:33.706Z,4.18
2023-05-05T01:20:46.075Z,3.90
2023-05-05T01:25:55.039Z,4.63
2023-05-05T01:30:57.646Z,5.03
2023-05-05T01:36:12.373Z,5.03
2023-05-05T01:41:22.407Z,6.00
2023-05-05T01:46:25.638Z,5.45
2023-05-05T01:51:29.471Z,5.70
2023-05-05T01:56:33.254Z,6.10
2023-05-05T02:01:39.723Z,7.60
2023-05-05T02:06:44.792Z,5.32
2023-05-05T02:11:47.786Z,4.57
2023-05-05T02:16:50.913Z,4.57
2023-05-05T02:21:55.864Z,4.10
2023-05-05T02:27:00.853Z,3.75
2023-05-05T02:32:07.580Z,3.27
2023-05-05T02:37:12.939Z,3.20
2023-05-05T02:42:22.072Z,3.10
2023-05-05T02:47:36.976Z,3.20
2023-05-05T02:52:43.522Z,3.15
2023-05-05T02:57:56.903Z,3.10
2023-05-05T03:03:18.209Z,2.72
2023-05-05T03:08:32.128Z,3.17
2023-05-05T03:13:43.256Z,3.00
2023-05-05T03:18:52.864Z,3.10
2023-05-05T03:23:57.430Z,3.40
2023-05-05T03:29:00.153Z,3.83
2023-05-05T03:34:06.617Z,3.67
2023-05-05T03:39:15.016Z,3.73
2023-05-05T03:44:17.590Z,3.63
2023-05-05T03:49:20.420Z,3.47
2023-05-05T03:54:24.287Z,3.25
2023-05-05T03:59:28.682Z,3.20
2023-05-05T04:04:31.904Z,3.05
2023-05-05T04:09:34.368Z,3.28
2023-05-05T04:14:37.114Z,4.60
2023-05-05T04:19:40.334Z,3.38
2023-05-05T04:24:44.033Z,4.57
2023-05-05T04:29:46.733Z,3.67
2023-05-05T04:34:49.669Z,4.50
2023-05-05T04:39:53.362Z,4.05
2023-05-05T04:44:57.008Z,3.75
2023-05-05T04:50:00.009Z,3.83
2023-05-05T04:55:04.722Z,4.38
2023-05-05T05:00:10.056Z,4.20
2023-05-05T05:05:13.272Z,5.20
2023-05-05T05:10:15.765Z,4.38
2023-05-05T05:15:21.005Z,4.40
2023-05-05T05:20:23.599Z,3.80
2023-05-05T05:25:26.412Z,3.60
2023-05-05T05:30:29.373Z,4.18
2023-05-05T05:35:32.555Z,4.43
2023-05-05T05:40:35.224Z,3.57
2023-05-05T05:45:38.161Z,3.80
2023-05-05T05:50:42.410Z,3.85
2023-05-05T05:55:48.505Z,4.13
2023-05-05T06:00:51.823Z,4.60
2023-05-05T06:05:54.986Z,4.25
2023-05-05T06:10:58.173Z,3.90
2023-05-05T06:16:00.957Z,4.33
2023-05-05T06:21:03.984Z,4.90
2023-05-05T06:26:10.180Z,4.72
2023-05-05T06:31:14.553Z,4.80
2023-05-05T06:36:17.025Z,5.03
2023-05-05T06:41:19.569Z,4.93
2023-05-05T06:46:22.393Z,4.43
2023-05-05T06:51:24.946Z,4.20
2023-05-05T06:56:27.485Z,4.18
2023-05-05T07:01:29.938Z,3.53
2023-05-05T07:06:33.049Z,4.47
2023-05-05T07:11:35.502Z,4.35
2023-05-05T07:16:38.385Z,4.50
2023-05-05T07:21:43.899Z,3.57
2023-05-05T07:26:47.396Z,3.95
2023-05-05T07:31:49.900Z,3.58
2023-05-05T07:36:56.555Z,3.57
2023-05-05T07:41:59.180Z,3.30
2023-05-05T07:47:01.682Z,3.95
2023-05-05T07:52:04.355Z,4.13
2023-05-05T07:57:06.918Z,3.97
2023-05-05T08:02:10.865Z,3.92
2023-05-05T08:07:13.271Z,4.35
2023-05-05T08:12:18.108Z,3.53
2023-05-05T08:17:20.890Z,3.60
2023-05-05T08:22:23.432Z,3.63
2023-05-05T08:27:26.046Z,3.90
2023-05-05T08:32:29.827Z,3.38
2023-05-05T08:37:33.097Z,3.10
2023-05-05T08:42:39.708Z,2.97
2023-05-05T08:47:43.634Z,4.03
2023-05-05T08:52:54.094Z,3.47
2023-05-05T08:58:17.636Z,3.35
2023-05-05T09:03:21.122Z,3.63
2023-05-05T09:08:23.846Z,3.80
2023-05-05T09:13:26.394Z,3.70
2023-05-05T09:18:29.688Z,3.43
2023-05-05T09:23:35.039Z,3.42
2023-05-05T09:28:37.864Z,4.07
2023-05-05T09:33:40.526Z,3.37
2023-05-05T09:39:06.690Z,3.13
2023-05-05T09:44:09.686Z,2.80
2023-05-05T09:49:19.879Z,2.97
2023-05-05T09:54:27.088Z,2.50
2023-05-05T10:04:49.795Z,2.80
2023-05-05T10:09:52.378Z,3.00
2023-05-05T10:15:01.415Z,2.67
2023-05-05T10:20:13.228Z,2.47
2023-05-05T10:25:18.107Z,2.57
2023-05-05T10:30:24.765Z,3.57
2023-05-05T10:35:30.073Z,2.90
2023-05-05T10:40:33.273Z,2.70
2023-05-05T10:45:37.630Z,3.13
2023-05-05T10:50:58.718Z,3.72
2023-05-05T10:56:14.404Z,3.30
2023-05-05T11:01:30.784Z,4.30
2023-05-05T11:06:33.413Z,4.30
2023-05-05T11:12:05.700Z,3.80
2023-05-05T11:17:54.326Z,3.93
2023-05-05T11:23:03.613Z,3.60
2023-05-05T11:28:14.593Z,4.43
2023-05-05T11:33:31.373Z,2.88
2023-05-05T11:39:00.744Z,3.07
2023-05-05T11:44:16.634Z,3.42
2023-05-05T11:49:30.251Z,3.33
2023-05-05T11:54:35.184Z,3.60
2023-05-05T11:59:57.856Z,3.65
2023-05-05T12:05:03.696Z,3.70
2023-05-05T12:10:07.775Z,4.17
2023-05-05T12:15:10.662Z,3.47
2023-05-05T12:20:13.789Z,4.93
2023-05-05T12:25:17.232Z,3.90
2023-05-05T12:30:20.385Z,4.60
2023-05-05T12:35:22.990Z,4.18
2023-05-05T12:40:50.081Z,3.97
2023-05-05T12:46:06.405Z,4.53
2023-05-05T12:51:17.047Z,4.07
2023-05-05T12:56:37.199Z,4.50
2023-05-05T13:01:51.891Z,3.87
2023-05-05T13:07:12.440Z,3.67
2023-05-05T13:12:18.935Z,4.65
2023-05-05T13:17:21.564Z,4.80
2023-05-05T13:22:24.340Z,4.07
2023-05-05T13:27:27.395Z,4.25
2023-05-05T13:32:29.955Z,3.88
2023-05-05T13:37:32.635Z,3.60
2023-05-05T13:42:35.329Z,4.22
2023-05-05T13:47:38.366Z,4.03
2023-05-05T13:52:42.111Z,4.40
2023-05-05T13:57:45.589Z,4.60
2023-05-05T14:02:48.472Z,4.10
2023-05-05T14:07:51.002Z,4.18
2023-05-05T14:12:53.804Z,4.37
2023-05-05T14:17:56.826Z,3.78
2023-05-05T14:22:59.447Z,4.43
2023-05-05T14:28:02.101Z,4.17
2023-05-05T14:33:04.736Z,4.63
2023-05-05T14:38:07.290Z,6.03
2023-05-05T14:43:09.810Z,6.03
2023-05-05T14:48:12.552Z,52.13
2023-05-05T14:53:15.544Z,39.60
2023-05-05T14:58:22.588Z,25.65
2023-05-05T15:03:25.513Z,4.57
2023-05-05T15:08:28.247Z,3.50
2023-05-05T15:13:31.621Z,3.08
2023-05-05T15:18:34.575Z,3.03
2023-05-05T15:23:37.336Z,3.20
2023-05-05T15:28:39.919Z,3.78
2023-05-05T15:33:44.899Z,2.73
2023-05-05T15:38:47.597Z,2.20
2023-05-05T15:43:50.191Z,4.60
2023-05-05T15:48:52.717Z,3.85
2023-05-05T15:53:55.335Z,3.80
2023-05-05T15:58:57.930Z,3.42
2023-05-05T16:04:01.546Z,3.47
2023-05-05T16:09:04.358Z,3.50
2023-05-05T16:14:06.946Z,3.63
2023-05-05T16:19:09.576Z,3.55
2023-05-05T16:24:17.044Z,3.00
2023-05-05T16:29:19.654Z,3.17
2023-05-05T16:34:22.414Z,3.85
2023-05-05T16:39:24.993Z,3.60
2023-05-05T16:44:27.722Z,3.33
2023-05-05T16:49:30.808Z,4.10
2023-05-05T16:59:56.396Z,3.80
2023-05-05T17:04:59.063Z,4.25
2023-05-05T17:10:02.483Z,3.90
2023-05-05T17:15:07.155Z,4.33
2023-05-05T17:20:10.388Z,4.23
2023-05-05T17:25:12.946Z,4.45
2023-05-05T17:30:16.070Z,4.55
2023-05-05T17:35:20.260Z,4.23
2023-05-05T17:40:23.154Z,5.05
2023-05-05T17:45:25.930Z,5.50
2023-05-05T17:50:28.529Z,8.50
2023-05-05T17:55:31.335Z,20.85
2023-05-05T18:00:34.078Z,28.85
2023-05-05T18:05:38.855Z,22.67
2023-05-05T18:10:43.425Z,17.43
2023-05-05T18:15:45.976Z,16.02
2023-05-05T18:20:52.207Z,16.33
2023-05-05T18:25:54.750Z,12.87
2023-05-05T18:30:57.452Z,13.35
2023-05-05T18:36:00.099Z,12.85
2023-05-05T18:41:02.730Z,14.80
2023-05-05T18:46:05.542Z,16.27
2023-05-05T18:51:08.186Z,13.20
2023-05-05T18:56:10.820Z,11.43
2023-05-05T19:01:13.473Z,10.70
2023-05-05T19:06:16.686Z,10.57
2023-05-05T19:11:19.473Z,10.30
2023-05-05T19:16:22.370Z,9.97
2023-05-05T19:21:27.582Z,9.43
2023-05-05T19:26:30.527Z,8.82
2023-05-05T19:31:33.135Z,8.87
2023-05-05T19:36:36.146Z,8.55
2023-05-05T19:41:38.724Z,7.85
2023-05-05T19:46:41.450Z,7.93
2023-05-05T19:51:46.440Z,7.63
2023-05-05T19:56:49.277Z,6.85
2023-05-05T20:01:52.191Z,6.82
2023-05-05T20:06:55.101Z,8.57
2023-05-05T20:11:59.229Z,8.52
2023-05-05T20:17:01.793Z,8.63
2023-05-05T20:22:04.715Z,9.17
2023-05-05T20:27:07.677Z,8.00
2023-05-05T20:32:10.201Z,9.05
2023-05-05T20:37:14.035Z,8.23
2023-05-05T20:42:16.765Z,9.60
2023-05-05T20:47:19.417Z,7.57
2023-05-05T20:52:22.039Z,8.02
2023-05-05T20:57:24.828Z,7.50
2023-05-05T21:02:27.611Z,7.50
2023-05-05T21:07:33.387Z,8.17
2023-05-05T21:12:40.273Z,8.90
2023-05-05T21:17:43.125Z,9.60
2023-05-05T21:22:48.289Z,10.03
2023-05-05T21:27:51.018Z,9.00
2023-05-05T21:32:53.768Z,9.10
2023-05-05T21:37:56.650Z,9.90
2023-05-05T21:42:59.266Z,13.73
2023-05-05T21:48:02.094Z,13.63
2023-05-05T21:53:04.972Z,15.73
2023-05-05T21:58:07.473Z,15.00
2023-05-05T22:03:10.152Z,16.10
2023-05-05T22:08:12.885Z,14.93
2023-05-05T22:13:15.579Z,14.10
2023-05-05T22:18:18.225Z,13.65
2023-05-05T22:23:20.874Z,13.23
2023-05-05T22:28:25.692Z,11.50
2023-05-05T22:33:28.757Z,12.07
2023-05-05T22:38:32.686Z,10.97
2023-05-05T22:43:38.223Z,11.50
2023-05-05T22:48:40.949Z,11.20
2023-05-05T22:53:43.515Z,11.10
2023-05-05T22:58:47.151Z,10.85
2023-05-05T23:03:50.149Z,10.18
2023-05-05T23:08:52.929Z,10.50
2023-05-05T23:13:55.530Z,10.57
2023-05-05T23:18:58.060Z,11.85
2023-05-05T23:24:02.998Z,12.93
2023-05-05T23:29:06.236Z,14.48
2023-05-05T23:34:08.951Z,12.33
2023-05-05T23:39:11.683Z,9.70
2023-05-05T23:44:14.262Z,9.50
2023-05-05T23:49:16.823Z,6.83
2023-05-05T23:54:20.036Z,6.00
2023-05-05T23:59:25.251Z,5.80
